Skip Navigation Links Skip Navigation Links

Current Weather

Ambler, Alaska

For information only: do not use for flight planning or navigation.
Latest weather
Observation time Friday, December 3, 2021 12:56 AM AKST
Local time Friday, December 3, 2021 1:45 AM AKST
Flight conditions Visual Meteorological Conditions
Winds
Wind direction North-Northeast (30°)
Wind speed 9 mph
Visibility 10 mi.
Sky condition
Ceiling unlimited
Sky clear
Temperature -14°F
Dewpoint -20°F
Altimeter 30.55 in.Hg
Derived measurements
Relative humidity 74%
Wind chill -33°F
Density altitude -5705 ft.
Sea-level pressure 30.60 in.Hg
Remarks
Fully automated report.
Automated weather observing station with precipitation discriminator.
Freezing rain sensor not operating.
METAR PAFM 030956Z AUTO 03008KT 10SM CLR M26/M29 A3055 RMK AO2 SLP361 T12561289 FZRANO

Settings

Location code

InnerDrive.Weather 4.0.6770.0 Release CLR 4.0.30319.42000
Copyright ©2018 Inner Drive Technology. All rights reserved. Portions Copyright ©1986-2018 David Braverman.

Find weather

Site navigation


Skip Navigation Links

Place info

Page info

PayPal - The safer, easier way to pay online!

Return home.

Copyright ©2021 Inner Drive Technology. Purveyors of fine, hand-crafted computer software. Page printed 2021-12-03T10:45:29 UTC.